createdAt,value
2023-01-12T00:07:16.033Z,100507.53
2023-01-12T00:14:48.041Z,100517.69
2023-01-12T00:22:20.485Z,100528.66
2023-01-12T00:29:52.220Z,100544.31
2023-01-12T00:37:25.079Z,100521.56
2023-01-12T00:45:15.367Z,100518.00
2023-01-12T00:52:47.110Z,100515.25
2023-01-12T01:00:19.787Z,100498.81
2023-01-12T01:07:51.521Z,100486.19
2023-01-12T01:15:23.284Z,100481.50
2023-01-12T01:22:55.073Z,100489.75
2023-01-12T01:30:26.799Z,100491.69
2023-01-12T01:37:58.551Z,100464.25
2023-01-12T01:45:30.305Z,100461.53
2023-01-12T01:53:05.081Z,100447.00
2023-01-12T02:00:38.226Z,100450.53
2023-01-12T02:08:32.080Z,100451.66
2023-01-12T02:16:21.086Z,100429.72
2023-01-12T02:24:33.204Z,100429.41
2023-01-12T02:32:48.498Z,100412.16
2023-01-12T02:40:32.845Z,100410.50
2023-01-12T02:48:11.067Z,100406.16
2023-01-12T02:55:43.627Z,100402.59
2023-01-12T03:03:17.188Z,100397.94
2023-01-12T03:11:13.295Z,100388.88
2023-01-12T03:19:06.132Z,100380.66
2023-01-12T03:26:42.734Z,100370.53
2023-01-12T03:34:14.449Z,100371.63
2023-01-12T03:41:56.746Z,100372.44
2023-01-12T03:49:53.202Z,100373.53
2023-01-12T03:57:25.195Z,100375.47
2023-01-12T04:04:56.927Z,100375.47
2023-01-12T04:12:28.663Z,100362.88
2023-01-12T04:20:00.445Z,100348.06
2023-01-12T04:27:32.215Z,100345.00
2023-01-12T04:35:05.270Z,100332.41
2023-01-12T04:42:56.087Z,100318.41
2023-01-12T04:50:27.824Z,100321.16
2023-01-12T04:57:59.568Z,100311.28
2023-01-12T05:05:33.075Z,100308.56
2023-01-12T05:13:04.815Z,100310.28
2023-01-12T05:20:36.918Z,100295.75
2023-01-12T05:28:08.685Z,100284.50
2023-01-12T05:35:40.495Z,100285.78
2023-01-12T05:43:33.588Z,100287.09
2023-01-12T05:51:07.764Z,100280.03
2023-01-12T05:58:41.042Z,100270.66
2023-01-12T06:06:12.804Z,100270.66
2023-01-12T06:13:59.616Z,100277.28
2023-01-12T06:21:32.678Z,100274.53
2023-01-12T06:29:06.936Z,100283.56
2023-01-12T06:36:39.452Z,100280.03
2023-01-12T06:44:11.253Z,100263.84
2023-01-12T06:51:43.680Z,100257.56
2023-01-12T06:59:15.487Z,100243.84
2023-01-12T07:06:48.237Z,100260.81
2023-01-12T07:14:20.006Z,100256.44
2023-01-12T07:21:51.752Z,100244.38
2023-01-12T07:29:23.837Z,100238.06
2023-01-12T07:36:55.608Z,100237.75
2023-01-12T07:44:27.383Z,100229.03
2023-01-12T07:51:59.139Z,100215.81
2023-01-12T07:59:30.868Z,100204.84
2023-01-12T08:07:03.200Z,100199.88
2023-01-12T08:14:37.300Z,100204.25
2023-01-12T08:22:15.779Z,100187.78
2023-01-12T08:29:49.092Z,100187.78
2023-01-12T08:37:22.733Z,100182.31
2023-01-12T08:44:54.762Z,100172.44
2023-01-12T08:52:29.317Z,100163.38
2023-01-12T09:00:01.121Z,100165.84
2023-01-12T09:07:33.173Z,100150.50
2023-01-12T09:15:05.445Z,100139.53
2023-01-12T09:22:37.205Z,100127.44
2023-01-12T09:30:10.051Z,100111.00
2023-01-12T09:37:43.604Z,100111.00
2023-01-12T09:45:39.160Z,100108.75
2023-01-12T09:53:31.543Z,100096.16
2023-01-12T10:01:14.582Z,100074.19
2023-01-12T10:09:00.963Z,100075.84
2023-01-12T10:16:52.034Z,100067.59
2023-01-12T10:24:24.727Z,100051.66
2023-01-12T10:31:56.506Z,100047.78
2023-01-12T10:39:34.169Z,100031.63
2023-01-12T10:47:09.884Z,100031.31
2023-01-12T10:54:43.363Z,100007.78
2023-01-12T11:02:15.891Z,100006.63
2023-01-12T11:09:48.013Z,99997.31
2023-01-12T11:17:38.695Z,99982.47
2023-01-12T11:25:13.685Z,99959.41
2023-01-12T11:33:08.908Z,99950.03
2023-01-12T11:40:40.681Z,99947.31
2023-01-12T11:48:22.861Z,99941.81
2023-01-12T11:56:37.025Z,99932.00
2023-01-12T12:04:41.998Z,99914.72
2023-01-12T12:12:34.516Z,99929.25
2023-01-12T12:20:31.713Z,99907.78
2023-01-12T12:28:48.378Z,99909.44
2023-01-12T12:36:29.345Z,99909.44
2023-01-12T12:45:05.198Z,99899.28
2023-01-12T12:52:37.073Z,99903.97
2023-01-12T13:00:30.808Z,99904.44
2023-01-12T13:08:02.705Z,99906.06
2023-01-12T13:15:37.187Z,99903.31
2023-01-12T13:23:45.490Z,99899.47
2023-01-12T13:31:32.873Z,99898.16
2023-01-12T13:39:06.002Z,99898.47
2023-01-12T13:46:51.442Z,99904.25
2023-01-12T13:54:23.247Z,99905.69
2023-01-12T14:01:55.653Z,99896.34
2023-01-12T14:10:24.132Z,99905.38
2023-01-12T14:18:23.532Z,99905.16
2023-01-12T14:26:10.500Z,99910.66
2023-01-12T14:33:49.491Z,99908.22
2023-01-12T14:41:42.691Z,99894.19
2023-01-12T14:49:21.344Z,99898.09
2023-01-12T14:57:00.238Z,99887.13
2023-01-12T15:04:32.069Z,99909.06
2023-01-12T15:12:28.616Z,99896.16
2023-01-12T15:20:18.762Z,99901.94
2023-01-12T15:27:50.505Z,99894.84
2023-01-12T15:35:26.404Z,99914.03
2023-01-12T15:42:59.783Z,99914.03
2023-01-12T15:50:32.920Z,99915.16
2023-01-12T15:58:04.842Z,99892.09
2023-01-12T16:05:36.658Z,99921.47
2023-01-12T16:13:09.446Z,99915.16
2023-01-12T16:20:41.205Z,99916.31
2023-01-12T16:28:12.934Z,99920.97
2023-01-12T16:35:45.105Z,99914.34
2023-01-12T16:43:21.060Z,99917.41
2023-01-12T16:50:52.824Z,99914.66
2023-01-12T16:58:24.546Z,99924.81
2023-01-12T17:05:56.412Z,99924.00
2023-01-12T17:13:28.356Z,99919.66
2023-01-12T17:21:05.403Z,99918.53
2023-01-12T17:28:37.352Z,99921.28
2023-01-12T17:36:10.654Z,99925.97
2023-01-12T17:43:42.446Z,99914.16
2023-01-12T17:51:15.090Z,99907.88
2023-01-12T17:58:52.990Z,99906.75
2023-01-12T18:06:26.726Z,99905.63
2023-01-12T18:13:59.380Z,99904.03
2023-01-12T18:21:31.322Z,99910.31
2023-01-12T18:29:04.726Z,99911.94
2023-01-12T18:36:38.911Z,99889.16
2023-01-12T18:44:10.710Z,99888.38
2023-01-12T18:52:00.822Z,99882.41
2023-01-12T18:59:33.194Z,99873.34
2023-01-12T19:07:05.135Z,99865.44
2023-01-12T19:14:55.319Z,99866.25
2023-01-12T19:22:45.572Z,99872.19
2023-01-12T19:30:17.729Z,99864.72
2023-01-12T19:45:22.459Z,99856.34
2023-01-12T19:52:54.246Z,99861.22
2023-01-12T20:00:26.545Z,99858.97
2023-01-12T20:07:58.304Z,99848.50
2023-01-12T20:15:30.069Z,99849.00
2023-01-12T20:23:01.914Z,99850.63
2023-01-12T20:30:38.352Z,99846.75
2023-01-12T20:38:15.472Z,99848.34
2023-01-12T20:45:47.462Z,99847.56
2023-01-12T20:53:19.370Z,99848.34
2023-01-12T21:00:51.395Z,99842.88
2023-01-12T21:08:23.298Z,99837.38
2023-01-12T21:16:02.891Z,99841.44
2023-01-12T21:23:34.684Z,99831.09
2023-01-12T21:31:08.531Z,99829.66
2023-01-12T21:38:40.375Z,99830.31
2023-01-12T21:46:12.122Z,99827.69
2023-01-12T21:53:43.864Z,99815.75
2023-01-12T22:01:15.780Z,99813.31
2023-01-12T22:08:47.982Z,99815.56
2023-01-12T22:16:19.785Z,99803.78
2023-01-12T22:31:24.147Z,99792.63
2023-01-12T22:38:55.989Z,99797.78
2023-01-12T22:46:27.858Z,99785.53
2023-01-12T22:53:59.589Z,99783.09
2023-01-12T23:01:31.850Z,99772.16
2023-01-12T23:09:03.759Z,99761.50
2023-01-12T23:16:35.569Z,99774.41
2023-01-12T23:24:07.469Z,99753.59
2023-01-12T23:31:39.350Z,99754.72
2023-01-12T23:39:12.121Z,99730.88
2023-01-12T23:46:44.005Z,99748.13
2023-01-12T23:54:17.265Z,99746.50
